sensor_id;sensor_type;location;lat;lon;timestamp;pressure;altitude;pressure_sealevel;temperature;humidity
68994;BME280;56054;50.968;5.816;2023-04-26T00:41:33;101087.78;;;5.75;93.25
68994;BME280;56054;50.968;5.816;2023-04-26T00:44:34;101091.78;;;5.72;93.91
68994;BME280;56054;50.968;5.816;2023-04-26T00:47:35;101089.75;;;5.78;94.22
68994;BME280;56054;50.968;5.816;2023-04-26T00:50:35;101093.34;;;5.80;94.63
68994;BME280;56054;50.968;5.816;2023-04-26T00:53:36;101087.16;;;5.78;95.77
68994;BME280;56054;50.968;5.816;2023-04-26T00:56:37;101085.47;;;5.68;95.97
68994;BME280;56054;50.968;5.816;2023-04-26T00:59:38;101094.56;;;5.65;95.95
68994;BME280;56054;50.968;5.816;2023-04-26T01:02:39;101096.00;;;5.61;94.75
68994;BME280;56054;50.968;5.816;2023-04-26T01:05:40;101086.44;;;5.60;95.41
68994;BME280;56054;50.968;5.816;2023-04-26T01:08:43;101088.75;;;5.57;95.49
68994;BME280;56054;50.968;5.816;2023-04-26T01:11:44;101081.03;;;5.57;96.38
68994;BME280;56054;50.968;5.816;2023-04-26T01:14:45;101090.66;;;5.49;95.03
68994;BME280;56054;50.968;5.816;2023-04-26T01:17:46;101097.28;;;5.37;94.65
68994;BME280;56054;50.968;5.816;2023-04-26T01:20:46;101094.50;;;5.44;94.99
68994;BME280;56054;50.968;5.816;2023-04-26T01:23:51;101085.84;;;5.44;95.01
68994;BME280;56054;50.968;5.816;2023-04-26T01:26:51;101088.38;;;5.33;95.80
68994;BME280;56054;50.968;5.816;2023-04-26T01:29:54;101092.88;;;5.36;96.96
68994;BME280;56054;50.968;5.816;2023-04-26T01:32:54;101089.25;;;5.34;95.89
68994;BME280;56054;50.968;5.816;2023-04-26T01:35:54;101100.34;;;5.33;96.40
68994;BME280;56054;50.968;5.816;2023-04-26T01:38:56;101095.47;;;5.36;96.36
68994;BME280;56054;50.968;5.816;2023-04-26T01:41:56;101087.25;;;5.40;97.04
68994;BME280;56054;50.968;5.816;2023-04-26T01:44:57;101089.84;;;5.21;96.52
68994;BME280;56054;50.968;5.816;2023-04-26T01:47:57;101087.94;;;5.29;96.67
68994;BME280;56054;50.968;5.816;2023-04-26T01:50:59;101084.47;;;5.28;98.08
68994;BME280;56054;50.968;5.816;2023-04-26T01:53:59;101094.78;;;5.28;98.20
68994;BME280;56054;50.968;5.816;2023-04-26T01:56:59;101087.38;;;5.12;97.51
68994;BME280;56054;50.968;5.816;2023-04-26T02:00:01;101083.47;;;5.07;96.94
68994;BME280;56054;50.968;5.816;2023-04-26T02:03:13;101085.91;;;5.06;97.05
68994;BME280;56054;50.968;5.816;2023-04-26T02:06:16;101089.09;;;5.03;97.54
68994;BME280;56054;50.968;5.816;2023-04-26T02:09:16;101093.63;;;5.06;96.94
68994;BME280;56054;50.968;5.816;2023-04-26T02:12:17;101089.63;;;5.09;97.07
68994;BME280;56054;50.968;5.816;2023-04-26T02:15:25;101086.72;;;4.96;97.11
68994;BME280;56054;50.968;5.816;2023-04-26T02:18:25;101088.25;;;4.94;97.58
68994;BME280;56054;50.968;5.816;2023-04-26T02:21:25;101083.19;;;4.85;96.51
68994;BME280;56054;50.968;5.816;2023-04-26T02:24:26;101086.50;;;4.84;97.92
68994;BME280;56054;50.968;5.816;2023-04-26T02:27:26;101088.47;;;4.87;97.32
68994;BME280;56054;50.968;5.816;2023-04-26T02:30:28;101090.91;;;4.85;98.45
68994;BME280;56054;50.968;5.816;2023-04-26T02:33:29;101090.63;;;4.63;98.42
68994;BME280;56054;50.968;5.816;2023-04-26T02:36:32;101092.81;;;4.50;98.58
68994;BME280;56054;50.968;5.816;2023-04-26T02:39:33;101094.38;;;4.67;97.68
68994;BME280;56054;50.968;5.816;2023-04-26T02:42:33;101083.78;;;4.64;99.10
68994;BME280;56054;50.968;5.816;2023-04-26T02:45:40;101077.63;;;4.53;98.18
68994;BME280;56054;50.968;5.816;2023-04-26T02:48:40;101084.25;;;4.60;98.56
68994;BME280;56054;50.968;5.816;2023-04-26T02:51:41;101084.09;;;4.39;97.37
68994;BME280;56054;50.968;5.816;2023-04-26T02:54:41;101074.72;;;4.40;98.50
68994;BME280;56054;50.968;5.816;2023-04-26T02:57:42;101064.22;;;4.47;98.24
68994;BME280;56054;50.968;5.816;2023-04-26T03:00:46;101065.06;;;4.28;98.79
68994;BME280;56054;50.968;5.816;2023-04-26T03:03:46;101053.84;;;4.37;97.92
68994;BME280;56054;50.968;5.816;2023-04-26T03:06:47;101058.13;;;4.27;97.22
68994;BME280;56054;50.968;5.816;2023-04-26T03:17:10;101052.66;;;4.33;98.90
68994;BME280;56054;50.968;5.816;2023-04-26T03:20:11;101060.00;;;4.39;98.41
68994;BME280;56054;50.968;5.816;2023-04-26T03:23:12;101057.34;;;4.28;99.75
68994;BME280;56054;50.968;5.816;2023-04-26T03:26:12;101061.94;;;4.22;99.02
68994;BME280;56054;50.968;5.816;2023-04-26T03:29:13;101056.47;;;4.28;99.05
68994;BME280;56054;50.968;5.816;2023-04-26T03:32:14;101055.41;;;4.26;98.51
68994;BME280;56054;50.968;5.816;2023-04-26T03:35:14;101054.97;;;4.21;98.20
68994;BME280;56054;50.968;5.816;2023-04-26T03:38:16;101050.19;;;4.16;98.89
68994;BME280;56054;50.968;5.816;2023-04-26T03:41:16;101053.66;;;4.16;98.25
68994;BME280;56054;50.968;5.816;2023-04-26T03:44:17;101049.13;;;4.14;98.20
68994;BME280;56054;50.968;5.816;2023-04-26T03:47:18;101046.03;;;3.99;98.79
68994;BME280;56054;50.968;5.816;2023-04-26T03:50:19;101044.88;;;4.14;99.73
68994;BME280;56054;50.968;5.816;2023-04-26T03:53:20;101048.84;;;4.11;100.00
68994;BME280;56054;50.968;5.816;2023-04-26T03:56:21;101041.59;;;4.06;99.42
68994;BME280;56054;50.968;5.816;2023-04-26T03:59:22;101050.38;;;4.00;100.00
68994;BME280;56054;50.968;5.816;2023-04-26T04:02:23;101051.44;;;4.02;98.17
68994;BME280;56054;50.968;5.816;2023-04-26T04:05:23;101057.91;;;4.07;99.45
68994;BME280;56054;50.968;5.816;2023-04-26T04:08:24;101055.03;;;4.13;100.00
68994;BME280;56054;50.968;5.816;2023-04-26T04:11:25;101058.41;;;4.03;100.00
68994;BME280;56054;50.968;5.816;2023-04-26T04:14:25;101059.47;;;4.05;100.00
68994;BME280;56054;50.968;5.816;2023-04-26T04:17:25;101053.13;;;4.01;100.00
68994;BME280;56054;50.968;5.816;2023-04-26T04:20:26;101064.31;;;4.02;100.00
68994;BME280;56054;50.968;5.816;2023-04-26T04:23:29;101064.31;;;4.02;100.00
68994;BME280;56054;50.968;5.816;2023-04-26T04:26:30;101061.34;;;3.89;100.00
68994;BME280;56054;50.968;5.816;2023-04-26T04:29:30;101064.53;;;3.86;100.00
68994;BME280;56054;50.968;5.816;2023-04-26T04:32:30;101068.88;;;3.96;100.00
68994;BME280;56054;50.968;5.816;2023-04-26T04:35:31;101071.34;;;3.85;100.00
68994;BME280;56054;50.968;5.816;2023-04-26T04:38:32;101066.50;;;3.89;100.00
68994;BME280;56054;50.968;5.816;2023-04-26T04:41:32;101069.16;;;3.99;100.00
68994;BME280;56054;50.968;5.816;2023-04-26T04:44:32;101072.44;;;4.06;100.00
68994;BME280;56054;50.968;5.816;2023-04-26T04:51:03;101076.53;;;3.68;100.00
68994;BME280;56054;50.968;5.816;2023-04-26T04:57:11;101093.16;;;3.80;100.00
68994;BME280;56054;50.968;5.816;2023-04-26T05:00:13;101099.81;;;3.70;100.00
68994;BME280;56054;50.968;5.816;2023-04-26T05:03:36;101096.00;;;3.75;100.00
68994;BME280;56054;50.968;5.816;2023-04-26T05:06:37;101097.97;;;3.77;100.00
68994;BME280;56054;50.968;5.816;2023-04-26T05:09:38;101085.38;;;3.98;100.00
68994;BME280;56054;50.968;5.816;2023-04-26T05:12:40;101097.72;;;4.11;100.00
68994;BME280;56054;50.968;5.816;2023-04-26T05:15:40;101100.03;;;3.99;100.00
68994;BME280;56054;50.968;5.816;2023-04-26T05:18:43;101107.09;;;4.10;100.00
68994;BME280;56054;50.968;5.816;2023-04-26T05:21:43;101100.81;;;4.25;100.00
68994;BME280;56054;50.968;5.816;2023-04-26T05:24:45;101096.63;;;4.17;100.00
68994;BME280;56054;50.968;5.816;2023-04-26T05:27:46;101106.22;;;4.37;100.00
68994;BME280;56054;50.968;5.816;2023-04-26T05:30:53;101101.81;;;4.00;100.00
68994;BME280;56054;50.968;5.816;2023-04-26T05:34:06;101104.28;;;3.90;100.00
68994;BME280;56054;50.968;5.816;2023-04-26T05:37:12;101110.56;;;4.11;100.00
68994;BME280;56054;50.968;5.816;2023-04-26T05:40:12;101103.47;;;4.08;100.00
68994;BME280;56054;50.968;5.816;2023-04-26T05:43:15;101112.34;;;4.20;100.00
68994;BME280;56054;50.968;5.816;2023-04-26T05:46:16;101109.66;;;4.65;100.00
68994;BME280;56054;50.968;5.816;2023-04-26T05:49:17;101106.66;;;4.61;100.00
68994;BME280;56054;50.968;5.816;2023-04-26T05:52:18;101109.16;;;4.50;100.00
68994;BME280;56054;50.968;5.816;2023-04-26T05:55:19;101115.94;;;4.78;100.00
68994;BME280;56054;50.968;5.816;2023-04-26T05:58:19;101114.34;;;4.69;100.00
68994;BME280;56054;50.968;5.816;2023-04-26T06:01:24;101114.34;;;4.69;100.00
68994;BME280;56054;50.968;5.816;2023-04-26T06:04:24;101115.66;;;4.75;100.00
68994;BME280;56054;50.968;5.816;2023-04-26T06:07:36;101120.06;;;4.94;100.00
68994;BME280;56054;50.968;5.816;2023-04-26T06:10:36;101116.66;;;5.04;100.00
68994;BME280;56054;50.968;5.816;2023-04-26T06:13:37;101115.97;;;5.15;100.00
68994;BME280;56054;50.968;5.816;2023-04-26T06:16:48;101112.13;;;5.21;100.00
68994;BME280;56054;50.968;5.816;2023-04-26T06:19:49;101117.50;;;5.13;100.00
68994;BME280;56054;50.968;5.816;2023-04-26T06:22:49;101130.28;;;5.41;100.00
68994;BME280;56054;50.968;5.816;2023-04-26T06:25:51;101140.47;;;5.40;100.00
68994;BME280;56054;50.968;5.816;2023-04-26T06:28:54;101133.91;;;5.43;100.00
68994;BME280;56054;50.968;5.816;2023-04-26T06:31:55;101125.03;;;5.69;100.00
68994;BME280;56054;50.968;5.816;2023-04-26T06:34:58;101133.88;;;5.62;100.00
68994;BME280;56054;50.968;5.816;2023-04-26T06:37:59;101138.25;;;5.63;100.00
68994;BME280;56054;50.968;5.816;2023-04-26T06:41:00;101125.63;;;5.56;99.59
68994;BME280;56054;50.968;5.816;2023-04-26T06:44:01;101126.84;;;5.80;98.03
68994;BME280;56054;50.968;5.816;2023-04-26T06:47:05;101144.03;;;5.61;98.25
68994;BME280;56054;50.968;5.816;2023-04-26T06:50:06;101136.47;;;5.91;98.68
68994;BME280;56054;50.968;5.816;2023-04-26T06:53:07;101138.06;;;5.99;98.79
68994;BME280;56054;50.968;5.816;2023-04-26T06:56:07;101145.25;;;5.93;96.59
68994;BME280;56054;50.968;5.816;2023-04-26T06:59:07;101137.06;;;5.97;96.30
68994;BME280;56054;50.968;5.816;2023-04-26T07:02:09;101132.50;;;5.95;95.54
68994;BME280;56054;50.968;5.816;2023-04-26T07:05:09;101145.97;;;6.11;95.15
68994;BME280;56054;50.968;5.816;2023-04-26T07:08:10;101149.97;;;6.08;94.46
68994;BME280;56054;50.968;5.816;2023-04-26T07:11:11;101154.13;;;6.26;94.10
68994;BME280;56054;50.968;5.816;2023-04-26T07:14:12;101156.75;;;6.36;93.50
68994;BME280;56054;50.968;5.816;2023-04-26T07:17:13;101153.16;;;6.45;94.60
68994;BME280;56054;50.968;5.816;2023-04-26T07:20:14;101150.84;;;6.68;93.33
68994;BME280;56054;50.968;5.816;2023-04-26T07:23:14;101152.19;;;6.73;93.40
68994;BME280;56054;50.968;5.816;2023-04-26T07:26:15;101152.03;;;6.82;93.35
68994;BME280;56054;50.968;5.816;2023-04-26T07:29:15;101143.75;;;6.65;92.89
68994;BME280;56054;50.968;5.816;2023-04-26T07:32:15;101139.25;;;6.83;92.49
68994;BME280;56054;50.968;5.816;2023-04-26T07:35:16;101133.19;;;6.93;92.12
68994;BME280;56054;50.968;5.816;2023-04-26T07:38:16;101138.09;;;7.00;92.59
68994;BME280;56054;50.968;5.816;2023-04-26T07:41:17;101133.69;;;7.10;91.65
68994;BME280;56054;50.968;5.816;2023-04-26T07:44:17;101129.94;;;7.06;90.86
68994;BME280;56054;50.968;5.816;2023-04-26T07:47:17;101120.88;;;7.11;89.65
68994;BME280;56054;50.968;5.816;2023-04-26T07:50:18;101133.00;;;7.33;89.18
68994;BME280;56054;50.968;5.816;2023-04-26T07:53:19;101120.88;;;7.32;89.72
68994;BME280;56054;50.968;5.816;2023-04-26T07:56:19;101126.31;;;7.14;87.85
68994;BME280;56054;50.968;5.816;2023-04-26T07:59:20;101128.06;;;7.36;88.15
68994;BME280;56054;50.968;5.816;2023-04-26T08:02:20;101119.63;;;7.48;88.95
68994;BME280;56054;50.968;5.816;2023-04-26T08:05:21;101128.22;;;7.37;86.32
68994;BME280;56054;50.968;5.816;2023-04-26T08:08:21;101128.97;;;7.36;87.36
68994;BME280;56054;50.968;5.816;2023-04-26T08:11:22;101138.16;;;7.33;88.50
68994;BME280;56054;50.968;5.816;2023-04-26T08:14:22;101145.66;;;7.40;88.20
68994;BME280;56054;50.968;5.816;2023-04-26T08:17:22;101146.97;;;7.35;87.85
68994;BME280;56054;50.968;5.816;2023-04-26T08:20:23;101149.44;;;7.23;89.27
68994;BME280;56054;50.968;5.816;2023-04-26T08:23:23;101147.44;;;7.41;89.05
68994;BME280;56054;50.968;5.816;2023-04-26T08:26:24;101145.78;;;7.41;88.28
68994;BME280;56054;50.968;5.816;2023-04-26T08:29:25;101147.34;;;7.19;87.20
68994;BME280;56054;50.968;5.816;2023-04-26T08:32:26;101144.41;;;7.24;88.42
68994;BME280;56054;50.968;5.816;2023-04-26T08:35:26;101144.75;;;7.29;87.80
68994;BME280;56054;50.968;5.816;2023-04-26T08:38:27;101143.81;;;7.39;87.05
68994;BME280;56054;50.968;5.816;2023-04-26T08:41:30;101143.47;;;7.24;87.32
68994;BME280;56054;50.968;5.816;2023-04-26T08:44:35;101147.34;;;7.39;87.50
68994;BME280;56054;50.968;5.816;2023-04-26T08:47:48;101150.31;;;7.34;87.60
68994;BME280;56054;50.968;5.816;2023-04-26T08:50:49;101148.50;;;7.33;86.31
68994;BME280;56054;50.968;5.816;2023-04-26T08:53:52;101143.03;;;7.50;85.78
68994;BME280;56054;50.968;5.816;2023-04-26T08:56:54;101140.91;;;7.34;86.84
68994;BME280;56054;50.968;5.816;2023-04-26T08:59:57;101135.69;;;7.44;85.88
68994;BME280;56054;50.968;5.816;2023-04-26T09:02:58;101131.09;;;7.62;86.89
68994;BME280;56054;50.968;5.816;2023-04-26T09:06:00;101140.97;;;7.56;86.44
68994;BME280;56054;50.968;5.816;2023-04-26T09:15:48;101133.63;;;7.83;82.70
68994;BME280;56054;50.968;5.816;2023-04-26T09:18:49;101139.56;;;7.82;80.86
68994;BME280;56054;50.968;5.816;2023-04-26T09:21:50;101135.38;;;7.94;79.61
68994;BME280;56054;50.968;5.816;2023-04-26T09:28:22;101132.03;;;7.95;79.02
68994;BME280;56054;50.968;5.816;2023-04-26T09:31:41;101128.16;;;8.12;77.43
68994;BME280;56054;50.968;5.816;2023-04-26T09:34:45;101122.81;;;8.21;75.52
68994;BME280;56054;50.968;5.816;2023-04-26T09:41:13;101127.41;;;8.35;74.16
68994;BME280;56054;50.968;5.816;2023-04-26T09:44:21;101140.34;;;8.13;72.82
68994;BME280;56054;50.968;5.816;2023-04-26T09:47:21;101130.75;;;8.44;70.61
68994;BME280;56054;50.968;5.816;2023-04-26T09:50:28;101127.59;;;8.82;69.55
68994;BME280;56054;50.968;5.816;2023-04-26T09:53:40;101126.03;;;8.84;69.60
68994;BME280;56054;50.968;5.816;2023-04-26T09:56:58;101121.19;;;8.55;66.61
68994;BME280;56054;50.968;5.816;2023-04-26T09:59:58;101109.81;;;8.31;66.47
68994;BME280;56054;50.968;5.816;2023-04-26T10:02:58;101110.31;;;8.59;66.98
68994;BME280;56054;50.968;5.816;2023-04-26T10:05:59;101115.56;;;8.49;66.31
68994;BME280;56054;50.968;5.816;2023-04-26T10:09:02;101112.63;;;8.90;66.55
68994;BME280;56054;50.968;5.816;2023-04-26T10:12:05;101114.69;;;9.06;64.27
68994;BME280;56054;50.968;5.816;2023-04-26T10:15:08;101102.22;;;9.35;63.67
68994;BME280;56054;50.968;5.816;2023-04-26T10:18:08;101103.91;;;9.35;63.57
68994;BME280;56054;50.968;5.816;2023-04-26T10:21:14;101099.25;;;9.78;62.60
68994;BME280;56054;50.968;5.816;2023-04-26T10:24:15;101102.06;;;9.69;63.30
68994;BME280;56054;50.968;5.816;2023-04-26T10:30:58;101098.16;;;9.99;60.30
68994;BME280;56054;50.968;5.816;2023-04-26T10:34:29;101102.06;;;9.81;60.76
68994;BME280;56054;50.968;5.816;2023-04-26T10:37:29;101094.81;;;10.25;59.88
68994;BME280;56054;50.968;5.816;2023-04-26T10:40:31;101103.19;;;10.21;60.49
68994;BME280;56054;50.968;5.816;2023-04-26T10:43:32;101091.56;;;10.16;61.27
68994;BME280;56054;50.968;5.816;2023-04-26T10:46:37;101097.22;;;9.74;58.82
68994;BME280;56054;50.968;5.816;2023-04-26T10:49:44;101082.69;;;9.64;58.02
68994;BME280;56054;50.968;5.816;2023-04-26T10:56:00;101086.22;;;9.90;57.85
68994;BME280;56054;50.968;5.816;2023-04-26T10:59:11;101084.31;;;9.99;57.78
68994;BME280;56054;50.968;5.816;2023-04-26T11:02:12;101084.59;;;9.67;57.88
68994;BME280;56054;50.968;5.816;2023-04-26T11:08:34;101076.13;;;10.30;60.64
68994;BME280;56054;50.968;5.816;2023-04-26T11:11:50;101068.16;;;10.40;57.76
68994;BME280;56054;50.968;5.816;2023-04-26T11:14:50;101061.50;;;9.95;56.90
68994;BME280;56054;50.968;5.816;2023-04-26T11:21:20;101055.69;;;10.47;56.87
68994;BME280;56054;50.968;5.816;2023-04-26T11:24:24;101055.13;;;10.15;57.13
68994;BME280;56054;50.968;5.816;2023-04-26T11:27:26;101056.28;;;10.06;57.79
68994;BME280;56054;50.968;5.816;2023-04-26T11:30:33;101058.09;;;10.07;57.84
68994;BME280;56054;50.968;5.816;2023-04-26T11:33:33;101057.78;;;10.03;56.79
68994;BME280;56054;50.968;5.816;2023-04-26T11:36:36;101050.91;;;9.92;57.42
68994;BME280;56054;50.968;5.816;2023-04-26T11:39:37;101048.75;;;10.35;57.08
68994;BME280;56054;50.968;5.816;2023-04-26T11:42:37;101049.63;;;10.60;56.71
68994;BME280;56054;50.968;5.816;2023-04-26T11:45:37;101051.13;;;10.57;55.79
68994;BME280;56054;50.968;5.816;2023-04-26T11:52:04;101048.22;;;10.52;54.79
68994;BME280;56054;50.968;5.816;2023-04-26T11:55:05;101036.25;;;10.67;55.94
68994;BME280;56054;50.968;5.816;2023-04-26T11:58:11;101048.41;;;10.55;55.73
68994;BME280;56054;50.968;5.816;2023-04-26T12:01:22;101047.78;;;10.46;57.87
68994;BME280;56054;50.968;5.816;2023-04-26T12:04:27;101044.31;;;10.08;56.10
68994;BME280;56054;50.968;5.816;2023-04-26T12:07:34;101050.25;;;10.69;57.11
68994;BME280;56054;50.968;5.816;2023-04-26T12:10:35;101054.91;;;10.48;56.74
68994;BME280;56054;50.968;5.816;2023-04-26T12:13:39;101051.81;;;10.54;56.44
68994;BME280;56054;50.968;5.816;2023-04-26T12:16:41;101046.47;;;10.39;56.22
68994;BME280;56054;50.968;5.816;2023-04-26T12:19:42;101042.81;;;10.49;56.50
68994;BME280;56054;50.968;5.816;2023-04-26T12:22:58;101039.78;;;10.43;56.13
68994;BME280;56054;50.968;5.816;2023-04-26T12:25:58;101036.50;;;10.45;57.81
68994;BME280;56054;50.968;5.816;2023-04-26T12:28:58;101041.81;;;10.60;57.04
68994;BME280;56054;50.968;5.816;2023-04-26T12:32:00;101041.25;;;10.78;56.39
68994;BME280;56054;50.968;5.816;2023-04-26T12:38:24;101034.03;;;11.12;55.63
68994;BME280;56054;50.968;5.816;2023-04-26T12:45:07;101034.19;;;11.02;52.31
68994;BME280;56054;50.968;5.816;2023-04-26T12:48:07;101036.03;;;11.84;53.89
68994;BME280;56054;50.968;5.816;2023-04-26T12:51:08;101043.06;;;11.85;50.91
68994;BME280;56054;50.968;5.816;2023-04-26T12:54:09;101033.03;;;11.37;50.96
68994;BME280;56054;50.968;5.816;2023-04-26T12:57:09;101034.28;;;11.17;51.21
68994;BME280;56054;50.968;5.816;2023-04-26T13:00:12;101031.88;;;11.60;51.47
68994;BME280;56054;50.968;5.816;2023-04-26T13:03:12;101040.00;;;11.38;51.75
68994;BME280;56054;50.968;5.816;2023-04-26T13:06:13;101039.31;;;11.27;51.23
68994;BME280;56054;50.968;5.816;2023-04-26T13:09:13;101044.91;;;11.33;52.78
68994;BME280;56054;50.968;5.816;2023-04-26T13:12:14;101036.03;;;11.29;53.46
68994;BME280;56054;50.968;5.816;2023-04-26T13:15:14;101035.59;;;11.23;52.94
68994;BME280;56054;50.968;5.816;2023-04-26T13:18:15;101028.13;;;11.14;53.15
68994;BME280;56054;50.968;5.816;2023-04-26T13:21:15;101026.81;;;11.21;54.97
68994;BME280;56054;50.968;5.816;2023-04-26T13:24:16;101039.72;;;11.20;53.77
68994;BME280;56054;50.968;5.816;2023-04-26T13:27:16;101043.53;;;11.25;54.86
68994;BME280;56054;50.968;5.816;2023-04-26T13:32:08;101035.09;;;11.42;51.66
68994;BME280;56054;50.968;5.816;2023-04-26T13:35:08;101025.13;;;11.22;52.18
68994;BME280;56054;50.968;5.816;2023-04-26T13:38:09;101039.19;;;11.39;51.33
68994;BME280;56054;50.968;5.816;2023-04-26T13:41:12;101038.38;;;11.66;50.94
68994;BME280;56054;50.968;5.816;2023-04-26T13:44:12;101038.97;;;11.62;51.50
68994;BME280;56054;50.968;5.816;2023-04-26T13:47:12;101031.66;;;11.70;51.28
68994;BME280;56054;50.968;5.816;2023-04-26T13:50:13;101038.13;;;11.35;49.38
68994;BME280;56054;50.968;5.816;2023-04-26T13:53:13;101024.25;;;11.63;51.37
68994;BME280;56054;50.968;5.816;2023-04-26T13:56:14;101025.38;;;11.66;50.85
68994;BME280;56054;50.968;5.816;2023-04-26T13:59:15;101035.47;;;11.48;48.86
68994;BME280;56054;50.968;5.816;2023-04-26T14:02:15;101035.00;;;11.27;49.21
68994;BME280;56054;50.968;5.816;2023-04-26T14:05:16;101025.28;;;11.38;49.47
68994;BME280;56054;50.968;5.816;2023-04-26T14:08:16;101023.69;;;11.53;47.87
68994;BME280;56054;50.968;5.816;2023-04-26T14:11:17;101032.72;;;11.32;48.21
68994;BME280;56054;50.968;5.816;2023-04-26T14:14:17;101030.50;;;11.38;50.47
68994;BME280;56054;50.968;5.816;2023-04-26T14:17:18;101030.31;;;11.35;49.68
68994;BME280;56054;50.968;5.816;2023-04-26T14:20:18;101023.47;;;11.64;51.49
68994;BME280;56054;50.968;5.816;2023-04-26T14:23:19;101023.19;;;11.46;50.43
68994;BME280;56054;50.968;5.816;2023-04-26T14:26:19;101017.63;;;11.68;49.50
68994;BME280;56054;50.968;5.816;2023-04-26T14:29:20;101016.72;;;11.81;50.09
68994;BME280;56054;50.968;5.816;2023-04-26T14:32:20;101008.88;;;11.52;49.02
68994;BME280;56054;50.968;5.816;2023-04-26T14:35:20;101012.66;;;11.71;49.26
68994;BME280;56054;50.968;5.816;2023-04-26T14:38:21;101018.09;;;11.47;48.97
68994;BME280;56054;50.968;5.816;2023-04-26T14:41:21;101023.25;;;11.61;48.20
68994;BME280;56054;50.968;5.816;2023-04-26T14:44:26;101005.44;;;11.67;48.71
68994;BME280;56054;50.968;5.816;2023-04-26T14:47:27;101008.38;;;11.86;49.10
68994;BME280;56054;50.968;5.816;2023-04-26T14:50:27;100989.88;;;11.82;47.64
68994;BME280;56054;50.968;5.816;2023-04-26T14:53:29;100995.41;;;12.14;48.17
68994;BME280;56054;50.968;5.816;2023-04-26T14:56:34;100989.75;;;11.93;49.76
68994;BME280;56054;50.968;5.816;2023-04-26T14:59:35;100995.38;;;11.86;47.01
68994;BME280;56054;50.968;5.816;2023-04-26T15:02:36;100985.81;;;12.58;47.03
68994;BME280;56054;50.968;5.816;2023-04-26T15:05:36;100981.41;;;12.87;46.70
68994;BME280;56054;50.968;5.816;2023-04-26T15:08:41;100984.56;;;12.81;46.68
68994;BME280;56054;50.968;5.816;2023-04-26T15:11:41;100986.09;;;12.77;46.50
68994;BME280;56054;50.968;5.816;2023-04-26T15:14:42;100975.03;;;12.81;46.17
68994;BME280;56054;50.968;5.816;2023-04-26T15:17:42;100981.72;;;13.22;46.23
68994;BME280;56054;50.968;5.816;2023-04-26T15:20:43;100980.88;;;13.07;46.47
68994;BME280;56054;50.968;5.816;2023-04-26T15:23:43;100978.22;;;13.22;44.97
68994;BME280;56054;50.968;5.816;2023-04-26T15:26:44;100965.34;;;13.25;45.17
68994;BME280;56054;50.968;5.816;2023-04-26T15:29:44;100972.84;;;13.50;45.13
68994;BME280;56054;50.968;5.816;2023-04-26T15:32:48;100976.19;;;12.87;44.86
68994;BME280;56054;50.968;5.816;2023-04-26T15:35:49;100977.38;;;13.38;45.45
68994;BME280;56054;50.968;5.816;2023-04-26T15:38:49;100972.28;;;13.24;45.21
68994;BME280;56054;50.968;5.816;2023-04-26T15:41:50;100976.44;;;13.52;44.45
68994;BME280;56054;50.968;5.816;2023-04-26T15:44:50;100984.06;;;13.33;44.37
68994;BME280;56054;50.968;5.816;2023-04-26T15:47:51;100980.09;;;13.24;44.19
68994;BME280;56054;50.968;5.816;2023-04-26T15:50:51;100983.84;;;13.44;45.16
68994;BME280;56054;50.968;5.816;2023-04-26T15:53:52;100972.78;;;13.65;43.68
68994;BME280;56054;50.968;5.816;2023-04-26T15:56:53;100970.91;;;12.85;43.58
68994;BME280;56054;50.968;5.816;2023-04-26T16:03:09;100973.69;;;12.88;44.21
68994;BME280;56054;50.968;5.816;2023-04-26T16:06:09;100974.50;;;12.72;43.52
68994;BME280;56054;50.968;5.816;2023-04-26T16:09:10;100982.22;;;13.00;45.25
68994;BME280;56054;50.968;5.816;2023-04-26T16:12:10;100972.78;;;13.02;46.02
68994;BME280;56054;50.968;5.816;2023-04-26T16:15:10;100982.47;;;13.05;45.29
68994;BME280;56054;50.968;5.816;2023-04-26T16:18:11;100970.66;;;12.66;44.31
68994;BME280;56054;50.968;5.816;2023-04-26T16:21:11;100979.00;;;12.45;45.71
68994;BME280;56054;50.968;5.816;2023-04-26T16:24:12;100983.38;;;12.31;45.43
68994;BME280;56054;50.968;5.816;2023-04-26T16:27:12;100975.03;;;11.94;45.91
68994;BME280;56054;50.968;5.816;2023-04-26T16:33:36;100980.00;;;11.76;45.96
68994;BME280;56054;50.968;5.816;2023-04-26T16:36:37;100972.19;;;12.04;47.16
68994;BME280;56054;50.968;5.816;2023-04-26T16:39:37;100965.72;;;11.84;46.95
68994;BME280;56054;50.968;5.816;2023-04-26T16:42:38;100972.19;;;11.76;47.18
68994;BME280;56054;50.968;5.816;2023-04-26T16:45:39;100970.72;;;11.53;47.42
68994;BME280;56054;50.968;5.816;2023-04-26T16:48:40;100969.22;;;11.56;48.13
68994;BME280;56054;50.968;5.816;2023-04-26T16:51:41;100971.06;;;11.44;48.33
68994;BME280;56054;50.968;5.816;2023-04-26T16:54:41;100970.72;;;11.53;48.65
68994;BME280;56054;50.968;5.816;2023-04-26T16:57:42;100974.56;;;11.45;48.28
68994;BME280;56054;50.968;5.816;2023-04-26T17:00:43;100977.75;;;11.41;49.71
68994;BME280;56054;50.968;5.816;2023-04-26T17:03:44;100963.66;;;11.37;49.17
68994;BME280;56054;50.968;5.816;2023-04-26T17:06:44;100972.75;;;11.44;49.27
68994;BME280;56054;50.968;5.816;2023-04-26T17:09:45;100977.47;;;11.09;49.25
68994;BME280;56054;50.968;5.816;2023-04-26T17:12:45;100968.19;;;11.00;49.38
68994;BME280;56054;50.968;5.816;2023-04-26T17:15:46;100972.78;;;11.04;48.82
68994;BME280;56054;50.968;5.816;2023-04-26T17:18:46;100972.00;;;11.05;49.66
68994;BME280;56054;50.968;5.816;2023-04-26T17:21:47;100982.91;;;10.86;49.26
68994;BME280;56054;50.968;5.816;2023-04-26T17:24:47;100980.38;;;10.87;49.26
68994;BME280;56054;50.968;5.816;2023-04-26T17:27:48;100979.38;;;10.72;48.84
68994;BME280;56054;50.968;5.816;2023-04-26T17:30:49;100973.91;;;10.81;49.42
68994;BME280;56054;50.968;5.816;2023-04-26T17:33:49;100975.28;;;10.89;49.83
68994;BME280;56054;50.968;5.816;2023-04-26T17:36:49;100983.06;;;10.62;50.20